createdAt,value
2024-02-29T00:00:17.039Z,100.00
2024-02-29T00:02:44.018Z,100.00
2024-02-29T00:05:13.173Z,100.00
2024-02-29T00:07:41.418Z,100.00
2024-02-29T00:10:10.478Z,100.00
2024-02-29T00:12:37.679Z,100.00
2024-02-29T00:15:05.085Z,100.00
2024-02-29T00:17:33.183Z,100.00
2024-02-29T00:20:00.694Z,100.00
2024-02-29T00:22:27.663Z,100.00
2024-02-29T00:24:54.759Z,100.00
2024-02-29T00:27:23.302Z,100.00
2024-02-29T00:29:50.235Z,100.00
2024-02-29T00:32:17.506Z,100.00
2024-02-29T00:34:44.462Z,100.00
2024-02-29T00:37:11.435Z,100.00
2024-02-29T00:39:38.443Z,100.00
2024-02-29T00:42:05.411Z,100.00
2024-02-29T00:44:32.351Z,100.00
2024-02-29T00:46:59.293Z,100.00
2024-02-29T00:49:26.219Z,100.00
2024-02-29T00:51:53.229Z,100.00
2024-02-29T00:54:20.219Z,100.00
2024-02-29T00:56:47.126Z,100.00
2024-02-29T00:59:14.040Z,100.00
2024-02-29T01:01:41.018Z,100.00
2024-02-29T01:04:08.182Z,100.00
2024-02-29T01:06:35.211Z,100.00
2024-02-29T01:09:02.104Z,100.00
2024-02-29T01:11:29.650Z,100.00
2024-02-29T01:13:56.597Z,100.00
2024-02-29T01:16:23.547Z,100.00
2024-02-29T01:18:50.506Z,100.00
2024-02-29T01:21:17.461Z,100.00
2024-02-29T01:23:44.383Z,100.00
2024-02-29T01:26:12.164Z,100.00
2024-02-29T01:28:39.095Z,100.00
2024-02-29T01:31:06.678Z,100.00
2024-02-29T01:33:34.007Z,100.00
2024-02-29T01:36:01.005Z,100.00
2024-02-29T01:38:27.919Z,100.00
2024-02-29T01:40:54.845Z,100.00
2024-02-29T01:43:21.771Z,100.00
2024-02-29T01:46:02.809Z,100.00
2024-02-29T01:48:29.860Z,100.00
2024-02-29T01:50:57.385Z,100.00
2024-02-29T01:53:24.330Z,100.00
2024-02-29T01:55:51.717Z,100.00
2024-02-29T01:58:18.703Z,100.00
2024-02-29T02:00:45.715Z,100.00
2024-02-29T02:03:12.855Z,100.00
2024-02-29T02:05:39.869Z,100.00
2024-02-29T02:08:07.626Z,100.00
2024-02-29T02:10:34.615Z,100.00
2024-02-29T02:13:01.701Z,100.00
2024-02-29T02:15:28.760Z,100.00
2024-02-29T02:17:56.077Z,100.00
2024-02-29T02:20:23.561Z,100.00
2024-02-29T02:22:50.439Z,100.00
2024-02-29T02:25:18.248Z,100.00
2024-02-29T02:27:45.207Z,100.00
2024-02-29T02:30:12.721Z,100.00
2024-02-29T02:32:41.031Z,100.00
2024-02-29T02:35:08.395Z,100.00
2024-02-29T02:37:36.466Z,100.00
2024-02-29T02:40:06.484Z,100.00
2024-02-29T02:42:34.089Z,100.00
2024-02-29T02:45:01.169Z,100.00
2024-02-29T02:47:28.129Z,100.00
2024-02-29T02:49:55.060Z,100.00
2024-02-29T02:52:22.110Z,100.00
2024-02-29T02:54:50.833Z,100.00
2024-02-29T02:57:17.761Z,100.00
2024-02-29T02:59:44.653Z,100.00
2024-02-29T03:02:11.674Z,100.00
2024-02-29T03:04:38.585Z,100.00
2024-02-29T03:07:05.702Z,100.00
2024-02-29T03:09:32.789Z,100.00
2024-02-29T03:11:59.887Z,100.00
2024-02-29T03:14:26.796Z,100.00
2024-02-29T03:16:53.725Z,100.00
2024-02-29T03:19:20.710Z,100.00
2024-02-29T03:21:47.766Z,100.00
2024-02-29T03:24:14.847Z,100.00
2024-02-29T03:26:41.850Z,100.00
2024-02-29T03:29:09.591Z,100.00
2024-02-29T03:31:36.494Z,100.00
2024-02-29T03:34:04.167Z,100.00
2024-02-29T03:36:31.208Z,100.00
2024-02-29T03:38:59.316Z,100.00
2024-02-29T03:41:26.390Z,100.00
2024-02-29T03:43:53.324Z,100.00
2024-02-29T03:46:20.349Z,100.00
2024-02-29T03:48:47.489Z,100.00
2024-02-29T03:51:15.023Z,100.00
2024-02-29T03:53:41.930Z,100.00
2024-02-29T03:56:08.871Z,100.00
2024-02-29T03:58:35.843Z,100.00
2024-02-29T04:01:02.907Z,100.00
2024-02-29T04:03:30.205Z,100.00
2024-02-29T04:05:57.180Z,100.00
2024-02-29T04:08:24.204Z,100.00
2024-02-29T04:10:51.973Z,100.00
2024-02-29T04:13:19.465Z,100.00
2024-02-29T04:15:49.764Z,100.00
2024-02-29T04:18:17.643Z,100.00
2024-02-29T04:20:45.522Z,100.00
2024-02-29T04:23:12.605Z,100.00
2024-02-29T04:25:39.669Z,100.00
2024-02-29T04:28:06.882Z,100.00
2024-02-29T04:30:33.985Z,100.00
2024-02-29T04:33:01.943Z,100.00
2024-02-29T04:35:28.942Z,100.00
2024-02-29T04:37:55.843Z,100.00
2024-02-29T04:40:22.897Z,100.00
2024-02-29T04:42:50.016Z,100.00
2024-02-29T04:45:17.092Z,100.00
2024-02-29T04:47:44.060Z,100.00
2024-02-29T04:50:11.172Z,100.00
2024-02-29T04:52:38.074Z,100.00
2024-02-29T04:55:05.478Z,100.00
2024-02-29T04:57:32.548Z,100.00
2024-02-29T04:59:59.500Z,100.00
2024-02-29T05:02:26.425Z,100.00
2024-02-29T05:04:54.734Z,100.00
2024-02-29T05:07:22.744Z,100.00
2024-02-29T05:09:49.757Z,100.00
2024-02-29T05:12:16.709Z,100.00
2024-02-29T05:14:43.691Z,100.00
2024-02-29T05:17:10.693Z,100.00
2024-02-29T05:19:39.250Z,100.00
2024-02-29T05:22:06.435Z,100.00
2024-02-29T05:24:33.377Z,100.00
2024-02-29T05:27:00.262Z,100.00
2024-02-29T05:29:27.165Z,100.00
2024-02-29T05:31:54.629Z,100.00
2024-02-29T05:34:25.467Z,100.00
2024-02-29T05:36:52.507Z,100.00
2024-02-29T05:39:19.859Z,100.00
2024-02-29T05:41:47.022Z,100.00
2024-02-29T05:44:13.969Z,100.00
2024-02-29T05:46:41.226Z,100.00
2024-02-29T05:49:09.264Z,100.00
2024-02-29T05:51:36.603Z,100.00
2024-02-29T05:54:03.819Z,100.00
2024-02-29T05:56:30.744Z,100.00
2024-02-29T05:58:58.107Z,100.00
2024-02-29T06:01:25.048Z,100.00
2024-02-29T06:03:52.186Z,100.00
2024-02-29T06:06:19.169Z,100.00
2024-02-29T06:08:46.050Z,100.00
2024-02-29T06:11:15.193Z,100.00
2024-02-29T06:13:42.828Z,100.00
2024-02-29T06:16:12.809Z,100.00
2024-02-29T06:18:39.803Z,100.00
2024-02-29T06:21:06.747Z,100.00
2024-02-29T06:23:33.641Z,100.00
2024-02-29T06:26:00.532Z,100.00
2024-02-29T06:28:27.749Z,100.00
2024-02-29T06:30:55.573Z,100.00
2024-02-29T06:33:22.569Z,100.00
2024-02-29T06:35:49.478Z,100.00
2024-02-29T06:38:20.665Z,100.00
2024-02-29T06:40:48.305Z,100.00
2024-02-29T06:43:15.694Z,100.00
2024-02-29T06:45:49.479Z,100.00
2024-02-29T06:48:21.321Z,100.00
2024-02-29T06:50:48.230Z,100.00
2024-02-29T06:53:15.146Z,100.00
2024-02-29T06:55:42.195Z,100.00
2024-02-29T06:58:09.344Z,100.00
2024-02-29T07:00:36.497Z,100.00
2024-02-29T07:03:03.732Z,100.00
2024-02-29T07:05:34.149Z,100.00
2024-02-29T07:08:03.656Z,100.00
2024-02-29T07:10:30.640Z,100.00
2024-02-29T07:12:57.638Z,100.00
2024-02-29T07:15:24.717Z,100.00
2024-02-29T07:17:51.785Z,100.00
2024-02-29T07:20:19.358Z,100.00
2024-02-29T07:22:47.772Z,100.00
2024-02-29T07:25:16.032Z,100.00
2024-02-29T07:27:44.508Z,100.00
2024-02-29T07:30:11.868Z,100.00
2024-02-29T07:32:39.151Z,100.00
2024-02-29T07:35:06.610Z,100.00
2024-02-29T07:37:34.010Z,100.00
2024-02-29T07:40:01.557Z,100.00
2024-02-29T07:42:29.176Z,100.00
2024-02-29T07:44:56.275Z,100.00
2024-02-29T07:47:23.256Z,100.00
2024-02-29T07:49:50.226Z,100.00
2024-02-29T07:52:17.228Z,100.00
2024-02-29T07:54:47.146Z,100.00
2024-02-29T07:57:14.370Z,100.00
2024-02-29T07:59:41.612Z,100.00
2024-02-29T08:02:08.896Z,100.00
2024-02-29T08:04:37.869Z,100.00
2024-02-29T08:07:05.484Z,100.00
2024-02-29T08:09:32.403Z,100.00
2024-02-29T08:11:59.585Z,100.00
2024-02-29T08:14:26.916Z,100.00
2024-02-29T08:16:54.041Z,100.00
2024-02-29T08:19:21.202Z,100.00
2024-02-29T08:21:49.853Z,100.00
2024-02-29T08:24:17.149Z,100.00
2024-02-29T08:26:45.006Z,100.00
2024-02-29T08:29:16.041Z,100.00
2024-02-29T08:31:44.859Z,100.00
2024-02-29T08:34:12.359Z,100.00
2024-02-29T08:36:39.717Z,100.00
2024-02-29T08:39:06.668Z,100.00
2024-02-29T08:41:33.547Z,100.00
2024-02-29T08:44:00.486Z,100.00
2024-02-29T08:46:27.899Z,100.00
2024-02-29T08:48:54.882Z,100.00
2024-02-29T08:51:21.861Z,100.00
2024-02-29T08:53:48.728Z,100.00
2024-02-29T08:56:16.388Z,100.00
2024-02-29T08:58:43.346Z,100.00
2024-02-29T09:01:10.377Z,100.00
2024-02-29T09:03:37.351Z,100.00
2024-02-29T09:06:04.630Z,100.00
2024-02-29T09:08:31.571Z,100.00
2024-02-29T09:10:58.510Z,100.00
2024-02-29T09:13:30.695Z,100.00
2024-02-29T09:16:02.762Z,100.00
2024-02-29T09:18:31.631Z,100.00
2024-02-29T09:20:58.735Z,100.00
2024-02-29T09:23:27.707Z,100.00
2024-02-29T09:25:55.371Z,100.00
2024-02-29T09:28:22.673Z,100.00
2024-02-29T09:30:50.026Z,100.00
2024-02-29T09:33:20.887Z,100.00
2024-02-29T09:35:47.751Z,100.00
2024-02-29T09:38:14.650Z,100.00
2024-02-29T09:40:49.026Z,100.00
2024-02-29T09:43:20.138Z,100.00
2024-02-29T09:45:49.772Z,100.00
2024-02-29T09:48:17.115Z,100.00
2024-02-29T09:50:44.153Z,100.00
2024-02-29T09:53:11.518Z,100.00
2024-02-29T09:55:38.495Z,100.00
2024-02-29T09:58:06.393Z,100.00
2024-02-29T10:00:47.291Z,100.00
2024-02-29T10:03:49.336Z,100.00
2024-02-29T10:06:17.052Z,100.00
2024-02-29T10:08:46.160Z,100.00
2024-02-29T10:11:19.565Z,100.00
2024-02-29T10:13:46.845Z,100.00
2024-02-29T10:16:18.434Z,100.00
2024-02-29T10:18:45.497Z,100.00
2024-02-29T10:21:16.386Z,100.00
2024-02-29T10:23:45.858Z,100.00
2024-02-29T10:26:17.541Z,100.00
2024-02-29T10:28:44.493Z,100.00
2024-02-29T10:31:16.990Z,100.00
2024-02-29T10:34:04.517Z,100.00
2024-02-29T10:36:55.236Z,100.00
2024-02-29T10:39:42.494Z,100.00
2024-02-29T10:42:09.954Z,100.00
2024-02-29T10:44:53.003Z,100.00
2024-02-29T11:36:56.238Z,89.97
2024-02-29T12:29:59.298Z,74.33
2024-02-29T12:32:42.636Z,76.86
2024-02-29T12:35:20.175Z,75.50
2024-02-29T12:37:47.335Z,73.71
2024-02-29T12:47:23.122Z,67.41
2024-02-29T12:59:55.638Z,62.15
2024-02-29T13:09:24.361Z,59.07
2024-02-29T13:56:27.299Z,65.73
2024-02-29T13:58:54.511Z,62.89
2024-02-29T14:01:21.712Z,62.15
2024-02-29T14:03:48.754Z,61.85
2024-02-29T14:11:02.731Z,61.25
2024-02-29T14:16:19.914Z,62.85
2024-02-29T14:18:47.101Z,64.26
2024-02-29T14:21:16.862Z,65.29
2024-02-29T14:30:42.226Z,66.25
2024-02-29T14:43:52.784Z,75.83
2024-02-29T14:46:19.749Z,81.37
2024-02-29T14:48:46.677Z,79.39
2024-02-29T14:51:13.571Z,76.02
2024-02-29T14:53:40.414Z,73.11
2024-02-29T14:56:07.349Z,71.81
2024-02-29T14:58:34.376Z,70.47
2024-02-29T15:01:01.673Z,75.45
2024-02-29T15:03:30.511Z,74.85
2024-02-29T15:05:57.529Z,81.21
2024-02-29T15:08:24.556Z,86.14
2024-02-29T15:10:51.530Z,85.93
2024-02-29T15:13:18.456Z,86.87
2024-02-29T15:15:45.365Z,86.93
2024-02-29T15:18:12.348Z,74.32
2024-02-29T15:20:39.326Z,70.92
2024-02-29T15:23:06.546Z,69.00
2024-02-29T15:25:34.112Z,70.47
2024-02-29T15:28:05.662Z,76.20
2024-02-29T15:30:36.950Z,75.63
2024-02-29T15:33:04.253Z,74.43
2024-02-29T15:35:31.200Z,66.03
2024-02-29T15:37:58.243Z,65.06
2024-02-29T15:40:25.246Z,69.25
2024-02-29T15:42:52.304Z,67.40
2024-02-29T15:45:19.236Z,63.42
2024-02-29T15:47:47.150Z,63.07
2024-02-29T15:50:14.163Z,64.04
2024-02-29T15:52:41.164Z,64.68
2024-02-29T15:55:08.523Z,64.09
2024-02-29T15:57:35.827Z,60.80
2024-02-29T16:00:03.450Z,61.85
2024-02-29T16:02:32.580Z,60.93
2024-02-29T16:04:59.893Z,60.67
2024-02-29T16:07:26.764Z,59.82
2024-02-29T16:09:53.655Z,59.94
2024-02-29T16:12:21.625Z,62.56
2024-02-29T16:14:50.077Z,65.82
2024-02-29T16:17:16.994Z,68.26
2024-02-29T16:19:44.734Z,70.14
2024-02-29T16:22:12.552Z,72.28
2024-02-29T16:24:39.445Z,70.30
2024-02-29T16:27:06.460Z,70.45
2024-02-29T16:29:33.460Z,73.01
2024-02-29T16:32:00.372Z,75.22
2024-02-29T16:34:28.419Z,72.94
2024-02-29T16:36:55.501Z,71.19
2024-02-29T16:39:22.419Z,73.86
2024-02-29T16:41:49.335Z,75.87
2024-02-29T16:44:16.228Z,81.11
2024-02-29T16:46:43.206Z,82.48
2024-02-29T16:49:10.216Z,86.02
2024-02-29T16:51:37.247Z,85.35
2024-02-29T16:54:04.221Z,89.72
2024-02-29T16:56:31.173Z,90.02
2024-02-29T16:58:58.166Z,95.58
2024-02-29T17:01:25.172Z,93.61
2024-02-29T17:03:52.229Z,93.69
2024-02-29T17:06:19.554Z,94.79
2024-02-29T17:08:46.497Z,95.98
2024-02-29T17:11:13.514Z,97.02
2024-02-29T17:13:40.460Z,100.00
2024-02-29T17:16:07.396Z,99.50
2024-02-29T17:18:34.282Z,100.00
2024-02-29T17:21:01.474Z,100.00
2024-02-29T17:23:28.431Z,100.00
2024-02-29T17:25:55.404Z,100.00
2024-02-29T17:28:22.454Z,100.00
2024-02-29T17:30:49.484Z,100.00
2024-02-29T17:33:18.202Z,100.00
2024-02-29T17:35:45.830Z,100.00
2024-02-29T17:38:12.767Z,100.00
2024-02-29T17:40:39.715Z,100.00
2024-02-29T17:43:06.686Z,100.00
2024-02-29T17:45:33.530Z,100.00
2024-02-29T17:48:00.435Z,100.00
2024-02-29T17:50:28.917Z,100.00
2024-02-29T17:52:57.062Z,100.00
2024-02-29T17:55:24.198Z,100.00
2024-02-29T17:57:51.133Z,100.00
2024-02-29T18:00:18.220Z,100.00
2024-02-29T18:02:45.159Z,100.00
2024-02-29T18:05:12.909Z,100.00
2024-02-29T18:07:47.372Z,100.00
2024-02-29T18:10:22.127Z,100.00
2024-02-29T18:12:49.114Z,100.00
2024-02-29T18:15:16.447Z,100.00
2024-02-29T18:17:45.093Z,100.00
2024-02-29T18:20:18.682Z,100.00
2024-02-29T18:22:47.656Z,100.00
2024-02-29T18:25:17.816Z,100.00
2024-02-29T18:27:45.001Z,100.00
2024-02-29T18:30:12.516Z,100.00
2024-02-29T18:32:39.800Z,100.00
2024-02-29T18:35:11.032Z,100.00
2024-02-29T18:37:41.163Z,100.00
2024-02-29T18:40:12.482Z,100.00
2024-02-29T18:42:40.243Z,100.00
2024-02-29T18:45:08.055Z,100.00
2024-02-29T18:47:35.718Z,100.00
2024-02-29T18:50:04.059Z,100.00
2024-02-29T18:52:31.079Z,100.00
2024-02-29T18:54:58.298Z,100.00
2024-02-29T18:57:25.221Z,100.00
2024-02-29T18:59:52.135Z,100.00
2024-02-29T19:02:19.158Z,100.00
2024-02-29T19:04:51.484Z,100.00
2024-02-29T19:07:19.130Z,100.00
2024-02-29T19:09:47.145Z,100.00
2024-02-29T19:12:14.290Z,100.00
2024-02-29T19:14:41.542Z,100.00
2024-02-29T19:17:08.792Z,100.00
2024-02-29T19:19:35.825Z,100.00
2024-02-29T19:22:05.173Z,100.00
2024-02-29T19:24:32.204Z,100.00
2024-02-29T19:26:59.152Z,100.00
2024-02-29T19:29:26.272Z,100.00
2024-02-29T19:31:54.306Z,100.00
2024-02-29T19:34:21.876Z,100.00
2024-02-29T19:36:49.815Z,100.00
2024-02-29T19:39:16.796Z,100.00
2024-02-29T19:41:45.150Z,100.00
2024-02-29T19:44:13.730Z,100.00
2024-02-29T19:46:47.654Z,100.00
2024-02-29T19:49:14.755Z,100.00
2024-02-29T19:51:42.478Z,100.00
2024-02-29T19:54:11.903Z,100.00
2024-02-29T19:56:40.083Z,100.00
2024-02-29T19:59:07.110Z,100.00
2024-02-29T20:01:34.264Z,100.00
2024-02-29T20:04:01.235Z,100.00
2024-02-29T20:06:28.125Z,100.00
2024-02-29T20:08:55.098Z,100.00
2024-02-29T20:11:22.196Z,100.00
2024-02-29T20:13:49.135Z,100.00
2024-02-29T20:16:16.438Z,100.00
2024-02-29T20:18:43.366Z,100.00
2024-02-29T20:21:10.343Z,100.00
2024-02-29T20:23:37.448Z,100.00
2024-02-29T20:26:04.492Z,100.00
2024-02-29T20:28:32.179Z,100.00
2024-02-29T20:30:59.243Z,100.00
2024-02-29T20:33:26.202Z,100.00
2024-02-29T20:35:53.132Z,100.00
2024-02-29T20:38:20.052Z,100.00
2024-02-29T20:40:46.948Z,100.00
2024-02-29T20:43:14.062Z,100.00
2024-02-29T20:45:41.000Z,100.00
2024-02-29T20:48:08.238Z,100.00
2024-02-29T20:50:35.237Z,100.00
2024-02-29T20:53:02.152Z,100.00
2024-02-29T20:55:29.213Z,100.00
2024-02-29T20:57:56.210Z,100.00
2024-02-29T21:00:23.181Z,100.00
2024-02-29T21:02:50.108Z,100.00
2024-02-29T21:05:17.009Z,100.00
2024-02-29T21:07:44.988Z,100.00
2024-02-29T21:10:12.292Z,100.00
2024-02-29T21:12:39.255Z,100.00
2024-02-29T21:15:06.535Z,100.00
2024-02-29T21:17:33.677Z,100.00
2024-02-29T21:20:00.611Z,100.00
2024-02-29T21:22:28.136Z,100.00
2024-02-29T21:24:55.212Z,100.00
2024-02-29T21:27:22.124Z,100.00
2024-02-29T21:29:49.089Z,100.00
2024-02-29T21:32:16.001Z,100.00
2024-02-29T21:34:46.129Z,100.00
2024-02-29T21:37:13.114Z,100.00
2024-02-29T21:39:44.724Z,100.00
2024-02-29T21:42:12.756Z,100.00
2024-02-29T21:44:39.962Z,100.00
2024-02-29T21:47:06.942Z,100.00
2024-02-29T21:49:34.016Z,100.00
2024-02-29T21:52:01.326Z,100.00
2024-02-29T21:54:31.743Z,100.00
2024-02-29T21:56:59.134Z,100.00
2024-02-29T21:59:26.063Z,100.00
2024-02-29T22:01:55.168Z,100.00
2024-02-29T22:04:26.445Z,100.00
2024-02-29T22:06:53.512Z,100.00
2024-02-29T22:09:21.050Z,100.00
2024-02-29T22:11:49.763Z,100.00
2024-02-29T22:14:23.724Z,100.00
2024-02-29T22:16:53.233Z,100.00
2024-02-29T22:19:24.406Z,100.00
2024-02-29T22:21:51.996Z,100.00
2024-02-29T22:24:19.497Z,100.00
2024-02-29T22:26:46.406Z,100.00
2024-02-29T22:29:13.637Z,100.00
2024-02-29T22:31:43.901Z,100.00
2024-02-29T22:34:11.071Z,100.00
2024-02-29T22:36:38.102Z,100.00
2024-02-29T22:39:05.259Z,100.00
2024-02-29T22:41:37.732Z,100.00
2024-02-29T22:44:07.860Z,100.00
2024-02-29T22:46:34.760Z,100.00
2024-02-29T22:49:01.671Z,100.00
2024-02-29T22:51:28.580Z,100.00
2024-02-29T22:53:55.620Z,100.00
2024-02-29T22:56:22.721Z,100.00
2024-02-29T22:58:49.600Z,100.00
2024-02-29T23:01:16.710Z,100.00
2024-02-29T23:03:43.718Z,100.00
2024-02-29T23:06:13.943Z,100.00
2024-02-29T23:08:40.865Z,100.00
2024-02-29T23:11:07.847Z,100.00
2024-02-29T23:13:34.819Z,100.00
2024-02-29T23:16:01.859Z,100.00
2024-02-29T23:18:28.832Z,100.00
2024-02-29T23:20:57.835Z,100.00
2024-02-29T23:23:24.735Z,100.00
2024-02-29T23:25:51.757Z,100.00
2024-02-29T23:28:19.009Z,100.00
2024-02-29T23:30:45.981Z,100.00
2024-02-29T23:33:12.963Z,100.00
2024-02-29T23:35:39.878Z,100.00
2024-02-29T23:38:06.758Z,100.00
2024-02-29T23:40:34.550Z,100.00
2024-02-29T23:43:01.651Z,100.00
2024-02-29T23:45:28.954Z,100.00
2024-02-29T23:47:56.026Z,100.00
2024-02-29T23:50:26.154Z,100.00
2024-02-29T23:52:53.090Z,100.00
2024-02-29T23:55:21.230Z,100.00
2024-02-29T23:57:48.228Z,100.00
